Time;durP1;ratioP1;P1;durP2;ratioP2;P2;SDS_P1;SDS_P2;PMS_P1;PMS_P2;Temp;Humidity;BMP_temperature;BMP_pressure;BME280_temperature;BME280_humidity;BME280_pressure;Samples;Min_cycle;Max_cycle;Signal;HPM_P1;HPM_P2
2021/05/07 00:01:25;;;;;;;2.00;1.35;;;;;;;;;;4957935;28;20130;-84
2021/05/07 00:04:12;;;;;;;2.00;1.15;;;;;;;;;;4955471;28;20726;-83
2021/05/07 00:06:57;;;;;;;2.17;0.90;;;;;;;;;;4957138;28;20035;-82
2021/05/07 00:09:43;;;;;;;0.98;0.82;;;;;;;;;;4958893;28;20022;-83
2021/05/07 00:12:28;;;;;;;0.88;0.85;;;;;;;;;;4956241;28;20031;-83
2021/05/07 00:15:13;;;;;;;2.00;0.60;;;;;;;;;;4966019;28;20030;-83
2021/05/07 00:17:58;;;;;;;1.90;0.80;;;;;;;;;;4955865;28;20038;-83
2021/05/07 00:20:44;;;;;;;1.35;0.75;;;;;;;;;;4956818;28;20038;-83
2021/05/07 00:23:29;;;;;;;3.20;1.00;;;;;;;;;;4957826;28;20470;-83
2021/05/07 00:26:14;;;;;;;1.73;0.90;;;;;;;;;;4960230;28;20659;-82
2021/05/07 00:28:59;;;;;;;2.45;0.80;;;;;;;;;;4964953;28;20466;-83
2021/05/07 00:31:45;;;;;;;0.70;0.70;;;;;;;;;;4951196;28;20552;-83
2021/05/07 00:34:30;;;;;;;3.28;0.80;;;;;;;;;;4961951;28;20101;-83
2021/05/07 00:37:15;;;;;;;2.38;0.90;;;;;;;;;;4955299;28;20031;-83
2021/05/07 00:40:00;;;;;;;6.13;2.50;;;;;;;;;;4958674;28;20045;-83
2021/05/07 00:42:45;;;;;;;1.80;1.10;;;;;;;;;;4954149;28;20027;-83
2021/05/07 00:45:31;;;;;;;2.17;1.08;;;;;;;;;;4959539;28;20039;-82
2021/05/07 00:48:17;;;;;;;2.25;1.08;;;;;;;;;;4953220;28;20052;-83
2021/05/07 00:51:02;;;;;;;1.13;0.70;;;;;;;;;;4956539;28;20480;-84
2021/05/07 00:53:48;;;;;;;2.20;1.23;;;;;;;;;;4955899;28;20495;-83
2021/05/07 00:56:33;;;;;;;3.45;1.02;;;;;;;;;;4958990;28;20023;-83
2021/05/07 00:59:18;;;;;;;1.52;0.73;;;;;;;;;;4961929;28;20042;-84
2021/05/07 01:02:03;;;;;;;1.23;0.70;;;;;;;;;;4957605;28;20041;-84
2021/05/07 01:04:49;;;;;;;1.35;0.73;;;;;;;;;;4958899;28;20022;-83
2021/05/07 01:07:35;;;;;;;1.08;0.98;;;;;;;;;;4951917;28;20024;-81
2021/05/07 01:10:20;;;;;;;3.70;0.90;;;;;;;;;;4953640;28;20035;-82
2021/05/07 01:13:05;;;;;;;1.27;1.00;;;;;;;;;;4956413;28;20031;-83
2021/05/07 01:15:51;;;;;;;0.60;0.60;;;;;;;;;;4958608;28;20031;-82
2021/05/07 01:18:36;;;;;;;3.67;0.90;;;;;;;;;;4956335;28;20041;-82
2021/05/07 01:21:21;;;;;;;2.35;0.60;;;;;;;;;;4959760;28;20034;-82
2021/05/07 01:24:07;;;;;;;1.05;0.80;;;;;;;;;;4956660;28;20037;-83
2021/05/07 01:26:53;;;;;;;4.03;0.98;;;;;;;;;;4957083;28;20041;-83
2021/05/07 01:29:38;;;;;;;3.03;0.95;;;;;;;;;;4956159;28;20027;-83
2021/05/07 01:32:23;;;;;;;3.50;1.17;;;;;;;;;;4975313;28;20038;-82
2021/05/07 01:35:29;;;;;;;3.90;1.00;;;;;;;;;;4958216;28;20077;-82
2021/05/07 01:38:15;;;;;;;1.27;0.60;;;;;;;;;;4959189;28;20026;-82
2021/05/07 01:41:01;;;;;;;1.35;0.68;;;;;;;;;;4963147;28;20023;-82
2021/05/07 01:43:46;;;;;;;1.27;0.77;;;;;;;;;;4961231;28;20034;-82
2021/05/07 01:46:31;;;;;;;0.98;0.70;;;;;;;;;;4957181;28;20039;-82
2021/05/07 01:49:16;;;;;;;2.40;0.82;;;;;;;;;;4951927;28;20026;-82
2021/05/07 01:52:02;;;;;;;1.55;0.80;;;;;;;;;;4961759;28;20041;-82
2021/05/07 01:54:47;;;;;;;1.95;0.70;;;;;;;;;;4960534;28;20109;-83
2021/05/07 01:57:33;;;;;;;1.13;0.82;;;;;;;;;;4958399;28;20027;-82
2021/05/07 02:00:19;;;;;;;0.68;0.68;;;;;;;;;;4954771;28;20058;-82
2021/05/07 02:03:05;;;;;;;1.25;0.75;;;;;;;;;;4957281;28;20026;-81
2021/05/07 02:05:50;;;;;;;1.00;0.80;;;;;;;;;;4948419;28;20022;-81
2021/05/07 02:08:35;;;;;;;1.05;0.80;;;;;;;;;;4953135;28;20034;-82
2021/05/07 02:11:21;;;;;;;1.27;0.80;;;;;;;;;;4955138;28;20031;-82
2021/05/07 02:14:06;;;;;;;2.25;0.88;;;;;;;;;;4957584;28;20105;-82
2021/05/07 02:16:51;;;;;;;3.33;1.00;;;;;;;;;;4951804;28;20110;-82
2021/05/07 02:19:36;;;;;;;0.82;0.80;;;;;;;;;;4959257;28;20023;-81
2021/05/07 02:22:22;;;;;;;1.08;0.90;;;;;;;;;;4943237;28;20137;-81
2021/05/07 02:25:08;;;;;;;1.85;0.80;;;;;;;;;;4955816;28;20038;-82
2021/05/07 02:27:54;;;;;;;1.90;0.80;;;;;;;;;;4954008;28;20030;-81
2021/05/07 02:30:39;;;;;;;0.80;0.80;;;;;;;;;;4956991;28;20026;-80
2021/05/07 02:33:25;;;;;;;1.15;1.00;;;;;;;;;;4961303;28;20429;-83
2021/05/07 02:36:10;;;;;;;1.25;0.73;;;;;;;;;;4952903;28;20045;-83
2021/05/07 02:38:55;;;;;;;0.88;0.88;;;;;;;;;;4958028;28;20033;-82
2021/05/07 02:41:40;;;;;;;1.65;0.98;;;;;;;;;;4953975;28;20084;-82
2021/05/07 02:44:25;;;;;;;3.42;1.35;;;;;;;;;;4959334;28;20031;-82
2021/05/07 02:47:11;;;;;;;2.05;0.80;;;;;;;;;;4954787;28;20465;-82
2021/05/07 02:49:56;;;;;;;1.52;1.02;;;;;;;;;;4956212;28;20034;-83
2021/05/07 02:52:41;;;;;;;2.30;1.17;;;;;;;;;;4954073;28;20031;-82
2021/05/07 02:55:26;;;;;;;2.25;0.95;;;;;;;;;;4958984;28;20501;-81
2021/05/07 02:58:12;;;;;;;6.85;1.10;;;;;;;;;;4952761;28;20069;-82
2021/05/07 03:00:57;;;;;;;1.38;0.90;;;;;;;;;;4953609;28;20023;-82
2021/05/07 03:03:42;;;;;;;2.13;0.90;;;;;;;;;;4957112;28;20031;-83
2021/05/07 03:06:27;;;;;;;2.13;1.00;;;;;;;;;;4951537;28;20030;-82
2021/05/07 03:09:12;;;;;;;2.20;1.00;;;;;;;;;;4956340;28;20393;-83
2021/05/07 03:11:58;;;;;;;1.35;0.90;;;;;;;;;;4961450;28;20069;-83
2021/05/07 03:14:43;;;;;;;1.00;0.95;;;;;;;;;;4958126;28;20037;-82
2021/05/07 03:17:28;;;;;;;3.53;0.95;;;;;;;;;;4960997;28;20041;-83
2021/05/07 03:20:14;;;;;;;2.28;1.13;;;;;;;;;;4959480;28;20058;-82
2021/05/07 03:22:59;;;;;;;2.03;1.05;;;;;;;;;;4953120;28;20118;-82
2021/05/07 03:25:44;;;;;;;1.17;1.05;;;;;;;;;;4955755;28;20115;-82
2021/05/07 03:28:29;;;;;;;3.25;1.50;;;;;;;;;;4959020;28;20034;-83
2021/05/07 03:31:15;;;;;;;2.05;1.17;;;;;;;;;;4960030;28;20103;-82
2021/05/07 03:34:01;;;;;;;2.47;1.08;;;;;;;;;;4960321;28;20022;-83
2021/05/07 03:36:46;;;;;;;2.75;1.10;;;;;;;;;;4962871;28;20615;-82
2021/05/07 03:39:31;;;;;;;2.80;1.00;;;;;;;;;;4955175;28;20461;-82
2021/05/07 03:42:16;;;;;;;1.05;0.95;;;;;;;;;;4959111;28;20026;-82
2021/05/07 03:45:02;;;;;;;1.80;1.17;;;;;;;;;;4959971;28;20114;-82
2021/05/07 03:47:47;;;;;;;4.68;1.23;;;;;;;;;;4968088;28;20019;-82
2021/05/07 03:50:33;;;;;;;1.42;1.30;;;;;;;;;;4955956;28;20027;-81
2021/05/07 03:53:19;;;;;;;2.58;1.25;;;;;;;;;;4961821;28;20054;-81
2021/05/07 03:56:04;;;;;;;2.00;1.30;;;;;;;;;;4959978;28;20019;-81
2021/05/07 03:58:49;;;;;;;2.83;1.52;;;;;;;;;;4959276;28;20027;-81
2021/05/07 04:01:35;;;;;;;7.32;2.05;;;;;;;;;;4960099;28;20089;-82
2021/05/07 04:04:20;;;;;;;2.53;1.33;;;;;;;;;;4962902;28;20446;-81
2021/05/07 04:07:06;;;;;;;2.15;1.67;;;;;;;;;;4961299;28;20461;-82
2021/05/07 04:15:33;;;;;;;1.77;1.40;;;;;;;;;;4955091;28;20018;-82
2021/05/07 04:18:19;;;;;;;1.27;1.13;;;;;;;;;;4955911;28;20053;-82
2021/05/07 04:21:04;;;;;;;3.72;1.25;;;;;;;;;;4958145;28;20127;-81
2021/05/07 04:23:49;;;;;;;1.58;1.30;;;;;;;;;;4959051;28;20026;-81
2021/05/07 04:26:35;;;;;;;2.22;1.35;;;;;;;;;;4957319;28;20038;-82
2021/05/07 04:29:21;;;;;;;1.90;1.20;;;;;;;;;;4940344;28;20046;-82
2021/05/07 04:32:06;;;;;;;1.33;1.20;;;;;;;;;;4958612;28;20034;-82
2021/05/07 04:34:51;;;;;;;3.45;1.00;;;;;;;;;;4959530;28;20039;-82
2021/05/07 04:37:37;;;;;;;0.75;0.75;;;;;;;;;;4959504;28;20027;-82
2021/05/07 04:40:22;;;;;;;2.38;1.30;;;;;;;;;;4958901;28;20055;-81
2021/05/07 04:43:08;;;;;;;1.20;1.10;;;;;;;;;;4964318;28;20469;-80
2021/05/07 04:45:53;;;;;;;1.30;1.00;;;;;;;;;;4958257;28;20041;-79
2021/05/07 04:48:38;;;;;;;1.48;1.05;;;;;;;;;;4956954;28;20035;-81
2021/05/07 04:51:24;;;;;;;1.58;1.13;;;;;;;;;;4953864;28;20034;-82
2021/05/07 04:54:09;;;;;;;2.28;1.17;;;;;;;;;;4949695;28;20113;-80
2021/05/07 04:56:54;;;;;;;1.35;0.90;;;;;;;;;;4953363;28;20379;-83
2021/05/07 04:59:39;;;;;;;1.02;0.80;;;;;;;;;;4951274;28;20065;-84
2021/05/07 05:02:50;;;;;;;1.20;1.00;;;;;;;;;;4953256;28;20414;-84
2021/05/07 05:05:35;;;;;;;3.05;0.80;;;;;;;;;;4960351;28;20474;-83
2021/05/07 05:08:21;;;;;;;2.15;1.38;;;;;;;;;;4959975;28;20502;-85
2021/05/07 05:11:07;;;;;;;3.03;1.05;;;;;;;;;;4955594;28;20066;-85
2021/05/07 05:13:52;;;;;;;3.28;1.20;;;;;;;;;;4950943;28;20039;-85
2021/05/07 05:16:37;;;;;;;1.50;0.70;;;;;;;;;;4954020;28;20027;-81
2021/05/07 05:19:23;;;;;;;1.25;0.90;;;;;;;;;;4955485;28;20031;-81
2021/05/07 05:22:08;;;;;;;1.20;0.90;;;;;;;;;;4952086;28;20034;-81
2021/05/07 05:24:53;;;;;;;3.00;1.10;;;;;;;;;;4960210;28;20026;-81
2021/05/07 05:27:38;;;;;;;1.60;0.88;;;;;;;;;;4952532;28;20429;-81
2021/05/07 05:30:24;;;;;;;2.72;0.98;;;;;;;;;;4952489;28;20193;-81
2021/05/07 05:33:09;;;;;;;0.85;0.85;;;;;;;;;;4955176;28;20090;-82
2021/05/07 05:35:54;;;;;;;3.13;1.58;;;;;;;;;;4959280;28;20130;-81
2021/05/07 05:38:40;;;;;;;1.48;1.33;;;;;;;;;;4957293;28;20022;-87
2021/05/07 05:41:25;;;;;;;1.52;1.42;;;;;;;;;;4945783;28;20123;-84
2021/05/07 05:44:10;;;;;;;1.98;1.50;;;;;;;;;;4962611;28;20031;-84
2021/05/07 05:46:55;;;;;;;2.20;1.75;;;;;;;;;;4955332;28;20576;-82
2021/05/07 05:49:40;;;;;;;5.70;2.35;;;;;;;;;;4954994;28;20430;-82
2021/05/07 05:52:26;;;;;;;4.57;3.08;;;;;;;;;;4961422;28;20028;-87
2021/05/07 05:55:11;;;;;;;5.10;2.72;;;;;;;;;;4934849;28;20023;-87
2021/05/07 05:57:57;;;;;;;4.78;2.55;;;;;;;;;;4962272;28;20155;-86
2021/05/07 06:00:42;;;;;;;4.18;2.90;;;;;;;;;;4954984;28;21629;-88
2021/05/07 06:03:27;;;;;;;6.43;3.13;;;;;;;;;;4953749;28;20339;-84
2021/05/07 06:06:13;;;;;;;6.85;3.22;;;;;;;;;;4970241;28;20018;-93
2021/05/07 06:08:58;;;;;;;6.40;3.85;;;;;;;;;;4968512;28;20035;-85
2021/05/07 06:11:43;;;;;;;3.47;2.42;;;;;;;;;;4943377;28;20093;-83
2021/05/07 06:14:28;;;;;;;4.22;2.72;;;;;;;;;;4954179;28;20533;-82
2021/05/07 06:17:14;;;;;;;3.13;2.33;;;;;;;;;;4954207;28;20035;-79
2021/05/07 06:20:02;;;;;;;5.00;2.28;;;;;;;;;;4939717;28;20038;-82
2021/05/07 06:22:48;;;;;;;4.20;2.70;;;;;;;;;;4952984;28;20030;-85
2021/05/07 06:25:33;;;;;;;5.38;2.92;;;;;;;;;;4944579;28;20047;-85
2021/05/07 06:28:19;;;;;;;4.90;2.58;;;;;;;;;;4943737;28;20138;-84
2021/05/07 06:31:04;;;;;;;4.43;3.15;;;;;;;;;;4954029;28;20025;-86
2021/05/07 06:33:49;;;;;;;5.65;2.90;;;;;;;;;;4956134;28;20355;-86
2021/05/07 06:36:34;;;;;;;8.32;3.80;;;;;;;;;;4955244;28;20029;-86
2021/05/07 06:39:20;;;;;;;5.30;3.30;;;;;;;;;;4953065;28;20042;-85
2021/05/07 06:42:05;;;;;;;4.40;3.00;;;;;;;;;;4951800;28;20026;-85
2021/05/07 06:44:51;;;;;;;5.70;3.20;;;;;;;;;;4945984;28;20030;-86
2021/05/07 06:47:36;;;;;;;6.55;3.30;;;;;;;;;;4952645;28;20035;-85
2021/05/07 06:50:22;;;;;;;12.63;8.60;;;;;;;;;;4961402;28;20026;-86
2021/05/07 06:53:07;;;;;;;8.68;4.20;;;;;;;;;;4957784;28;20026;-86
2021/05/07 06:55:52;;;;;;;6.53;3.35;;;;;;;;;;4960509;28;20343;-85
2021/05/07 06:58:39;;;;;;;5.60;4.07;;;;;;;;;;4962020;28;20027;-86
2021/05/07 07:01:25;;;;;;;13.77;4.40;;;;;;;;;;4944825;28;21081;-87
2021/05/07 07:04:10;;;;;;;5.43;3.60;;;;;;;;;;4960054;28;20106;-86
2021/05/07 07:06:55;;;;;;;7.78;4.68;;;;;;;;;;4957359;28;20041;-87
2021/05/07 07:09:40;;;;;;;6.88;4.68;;;;;;;;;;4961958;28;20023;-86
2021/05/07 07:12:26;;;;;;;8.13;4.60;;;;;;;;;;4958199;28;20058;-88
2021/05/07 07:15:12;;;;;;;7.68;5.00;;;;;;;;;;4961122;28;20469;-88
2021/05/07 07:17:57;;;;;;;7.97;5.22;;;;;;;;;;4960773;28;20045;-88
2021/05/07 07:20:43;;;;;;;8.52;5.20;;;;;;;;;;4959750;28;20522;-89
2021/05/07 07:23:28;;;;;;;7.72;4.70;;;;;;;;;;4961095;28;20027;-87
2021/05/07 07:26:13;;;;;;;10.00;5.88;;;;;;;;;;4949588;28;20053;-79
2021/05/07 07:28:58;;;;;;;14.10;9.05;;;;;;;;;;4957515;28;20393;-85
2021/05/07 07:31:43;;;;;;;10.73;5.63;;;;;;;;;;4960273;28;20023;-84
2021/05/07 07:34:29;;;;;;;11.73;4.82;;;;;;;;;;4956494;28;20029;-86
2021/05/07 07:37:14;;;;;;;7.05;5.28;;;;;;;;;;4956065;28;20150;-86
2021/05/07 07:40:07;;;;;;;9.57;6.22;;;;;;;;;;4961666;28;20112;-88
2021/05/07 07:42:52;;;;;;;10.20;6.10;;;;;;;;;;4954887;28;20091;-85
2021/05/07 07:45:37;;;;;;;7.97;5.22;;;;;;;;;;4958231;28;20220;-85
2021/05/07 07:48:22;;;;;;;10.32;4.88;;;;;;;;;;4952903;28;20159;-84
2021/05/07 07:51:08;;;;;;;7.65;5.43;;;;;;;;;;4959814;28;20051;-84
2021/05/07 07:53:53;;;;;;;9.85;5.65;;;;;;;;;;4957604;28;20045;-85
2021/05/07 07:56:39;;;;;;;8.25;5.63;;;;;;;;;;4963171;28;20038;-84
2021/05/07 07:59:24;;;;;;;9.07;5.40;;;;;;;;;;4952970;28;20492;-82
2021/05/07 08:02:09;;;;;;;7.88;4.60;;;;;;;;;;4944987;28;20466;-82
2021/05/07 08:04:55;;;;;;;7.93;5.10;;;;;;;;;;4954628;28;20030;-82
2021/05/07 08:07:40;;;;;;;9.65;5.15;;;;;;;;;;4960390;28;20397;-83
2021/05/07 08:10:26;;;;;;;8.52;5.15;;;;;;;;;;4957148;28;20394;-82
2021/05/07 08:13:11;;;;;;;9.02;5.00;;;;;;;;;;4958589;28;20026;-81
2021/05/07 08:15:56;;;;;;;8.82;4.72;;;;;;;;;;4958940;28;20474;-82
2021/05/07 08:18:42;;;;;;;8.60;5.00;;;;;;;;;;4946601;28;20034;-83
2021/05/07 08:21:29;;;;;;;7.68;5.60;;;;;;;;;;4957006;28;20031;-82
2021/05/07 08:24:14;;;;;;;6.50;4.63;;;;;;;;;;4957979;28;20027;-82
2021/05/07 08:26:59;;;;;;;6.63;4.30;;;;;;;;;;4953635;28;20501;-83
2021/05/07 08:29:44;;;;;;;8.52;5.35;;;;;;;;;;4960487;28;20018;-82
2021/05/07 08:32:29;;;;;;;6.25;4.00;;;;;;;;;;4960694;28;20022;-81
2021/05/07 08:35:15;;;;;;;7.72;4.30;;;;;;;;;;4955150;28;20497;-81
2021/05/07 08:38:00;;;;;;;6.13;4.05;;;;;;;;;;4954990;28;20033;-81
2021/05/07 08:40:46;;;;;;;5.75;4.18;;;;;;;;;;4954036;28;20041;-82
2021/05/07 08:43:31;;;;;;;6.90;3.75;;;;;;;;;;4951228;28;20069;-83
2021/05/07 08:46:17;;;;;;;6.03;3.50;;;;;;;;;;4954714;28;20027;-82
2021/05/07 08:49:02;;;;;;;4.40;2.88;;;;;;;;;;4957969;28;20069;-81
2021/05/07 08:51:47;;;;;;;4.20;3.00;;;;;;;;;;4962477;28;20101;-82
2021/05/07 08:54:33;;;;;;;5.32;3.50;;;;;;;;;;4958278;28;20125;-82
2021/05/07 08:57:18;;;;;;;16.08;12.13;;;;;;;;;;4957193;28;20048;-82
2021/05/07 09:00:06;;;;;;;6.10;4.28;;;;;;;;;;4961671;28;20026;-81
2021/05/07 09:02:51;;;;;;;3.17;2.88;;;;;;;;;;4953801;28;20018;-81
2021/05/07 09:05:38;;;;;;;6.60;3.58;;;;;;;;;;4957712;28;20030;-81
2021/05/07 09:08:31;;;;;;;5.85;3.08;;;;;;;;;;4958998;28;20497;-80
2021/05/07 09:11:17;;;;;;;5.10;3.67;;;;;;;;;;4958716;28;20089;-80
2021/05/07 09:14:03;;;;;;;5.00;3.20;;;;;;;;;;4956974;28;20765;-80
2021/05/07 09:16:55;;;;;;;5.25;3.00;;;;;;;;;;4953146;28;20030;-81
2021/05/07 09:19:40;;;;;;;4.85;3.17;;;;;;;;;;4950138;28;20118;-81
2021/05/07 09:22:28;;;;;;;6.35;4.10;;;;;;;;;;4943745;28;20536;-81
2021/05/07 09:25:18;;;;;;;6.15;3.08;;;;;;;;;;4942692;28;20074;-80
2021/05/07 09:28:11;;;;;;;6.00;3.45;;;;;;;;;;4955906;28;20050;-80
2021/05/07 09:31:08;;;;;;;5.82;3.60;;;;;;;;;;4965198;28;20406;-81
2021/05/07 09:33:54;;;;;;;6.53;3.47;;;;;;;;;;4952715;28;20429;-80
2021/05/07 09:36:39;;;;;;;4.75;3.58;;;;;;;;;;4954854;28;20062;-80
2021/05/07 09:39:26;;;;;;;6.03;3.67;;;;;;;;;;4947673;28;20057;-81
2021/05/07 09:42:24;;;;;;;6.57;3.58;;;;;;;;;;4954954;28;20027;-80
2021/05/07 09:45:20;;;;;;;5.80;3.85;;;;;;;;;;4954886;28;20400;-80
2021/05/07 09:48:15;;;;;;;4.93;3.28;;;;;;;;;;4954457;28;20126;-80
2021/05/07 09:51:02;;;;;;;6.78;3.63;;;;;;;;;;4957456;28;20023;-80
2021/05/07 09:53:47;;;;;;;5.25;3.78;;;;;;;;;;4955432;28;21848;-80
2021/05/07 09:56:32;;;;;;;6.78;3.83;;;;;;;;;;4952930;28;20418;-83
2021/05/07 09:59:18;;;;;;;6.15;3.08;;;;;;;;;;4953197;28;20027;-82
2021/05/07 10:02:04;;;;;;;6.28;3.53;;;;;;;;;;4950431;28;20631;-80
2021/05/07 10:04:49;;;;;;;6.32;3.58;;;;;;;;;;4935062;28;20367;-81
2021/05/07 10:07:34;;;;;;;5.10;2.95;;;;;;;;;;4946468;28;20026;-81
2021/05/07 10:10:24;;;;;;;7.90;3.25;;;;;;;;;;4947871;28;20030;-82
2021/05/07 10:13:09;;;;;;;;;;;;;;;;;;4951036;28;20501;-83
2021/05/07 10:16:08;;;;;;;4.03;2.90;;;;;;;;;;4953327;28;19972;-82
2021/05/07 10:19:00;;;;;;;4.20;3.10;;;;;;;;;;4956512;28;20331;-89
2021/05/07 10:21:49;;;;;;;7.43;3.58;;;;;;;;;;4949239;28;20490;-84
2021/05/07 10:24:42;;;;;;;13.07;9.32;;;;;;;;;;4948369;28;20027;-83
2021/05/07 10:27:27;;;;;;;4.95;3.45;;;;;;;;;;4936504;28;20043;-82
2021/05/07 10:30:36;;;;;;;5.00;3.50;;;;;;;;;;4933682;28;20083;-80
2021/05/07 10:33:22;;;;;;;5.85;3.05;;;;;;;;;;4938919;28;20030;-82
2021/05/07 10:36:08;;;;;;;3.53;2.65;;;;;;;;;;4901032;28;20482;-81
2021/05/07 10:38:53;;;;;;;5.18;2.88;;;;;;;;;;4932864;28;20020;-81
2021/05/07 10:41:38;;;;;;;4.85;3.00;;;;;;;;;;4935985;29;20160;-82
2021/05/07 10:44:24;;;;;;;4.05;2.58;;;;;;;;;;4934376;28;20391;-85
2021/05/07 10:47:10;;;;;;;3.90;2.38;;;;;;;;;;4920000;28;20309;-82
2021/05/07 10:49:55;;;;;;;7.15;3.08;;;;;;;;;;4931891;28;20035;-83
2021/05/07 10:52:40;;;;;;;6.35;2.95;;;;;;;;;;4932957;29;20022;-82
2021/05/07 10:55:32;;;;;;;4.38;3.28;;;;;;;;;;4934533;28;20720;-81
2021/05/07 10:58:17;;;;;;;7.80;3.17;;;;;;;;;;4942338;28;20038;-82
2021/05/07 11:01:22;;;;;;;6.35;2.72;;;;;;;;;;4938171;28;20120;-84
2021/05/07 11:04:09;;;;;;;9.00;4.32;;;;;;;;;;4949223;28;20027;-85
2021/05/07 11:07:01;;;;;;;4.82;3.00;;;;;;;;;;4944629;28;20038;-84
2021/05/07 11:09:57;;;;;;;5.05;2.80;;;;;;;;;;4942962;28;20106;-86
2021/05/07 11:12:43;;;;;;;4.45;3.17;;;;;;;;;;4944963;28;20050;-81
2021/05/07 11:15:28;;;;;;;4.65;2.55;;;;;;;;;;4933625;28;20031;-85
2021/05/07 11:18:14;;;;;;;4.88;2.70;;;;;;;;;;4943204;28;20078;-83
2021/05/07 11:21:12;;;;;;;5.65;3.13;;;;;;;;;;4947084;28;20114;-83
2021/05/07 11:24:00;;;;;;;5.10;2.60;;;;;;;;;;4965333;28;20090;-83
2021/05/07 11:26:45;;;;;;;4.03;2.58;;;;;;;;;;4960944;28;20046;-84
2021/05/07 11:29:34;;;;;;;3.05;2.38;;;;;;;;;;4964433;28;20053;-85
2021/05/07 11:32:24;;;;;;;5.30;3.13;;;;;;;;;;4972921;28;20038;-82
2021/05/07 11:35:10;;;;;;;3.65;2.58;;;;;;;;;;4966838;28;20026;-82
2021/05/07 11:37:55;;;;;;;5.57;2.75;;;;;;;;;;4953940;28;20050;-84
2021/05/07 11:40:41;;;;;;;7.70;2.67;;;;;;;;;;4966928;28;20039;-83
2021/05/07 11:43:28;;;;;;;7.38;2.83;;;;;;;;;;4958002;28;20118;-82
2021/05/07 11:46:13;;;;;;;4.85;3.10;;;;;;;;;;4964878;28;20105;-83
2021/05/07 11:48:58;;;;;;;6.55;3.10;;;;;;;;;;4966886;28;20023;-83
2021/05/07 11:51:47;;;;;;;6.18;2.90;;;;;;;;;;4964339;28;20027;-87
2021/05/07 11:54:43;;;;;;;7.23;3.33;;;;;;;;;;4954987;28;20019;-84
2021/05/07 11:57:31;;;;;;;5.82;3.08;;;;;;;;;;4955303;28;20034;-82
2021/05/07 12:00:20;;;;;;;5.05;3.13;;;;;;;;;;4961557;28;20030;-83
2021/05/07 12:03:06;;;;;;;4.28;2.58;;;;;;;;;;4959855;28;20592;-84
2021/05/07 12:05:53;;;;;;;2.97;2.15;;;;;;;;;;4965853;28;20443;-81
2021/05/07 12:08:38;;;;;;;4.32;2.40;;;;;;;;;;4954422;28;20079;-82
2021/05/07 12:11:23;;;;;;;3.47;2.75;;;;;;;;;;4958635;28;20026;-81
2021/05/07 12:14:12;;;;;;;3.53;2.10;;;;;;;;;;4961261;28;20385;-80
2021/05/07 12:16:58;;;;;;;4.65;2.35;;;;;;;;;;4956706;28;20026;-81
2021/05/07 12:19:44;;;;;;;3.38;2.40;;;;;;;;;;4961140;28;20106;-81
2021/05/07 12:22:33;;;;;;;4.85;3.00;;;;;;;;;;4963312;28;20023;-81
2021/05/07 12:25:18;;;;;;;3.17;2.40;;;;;;;;;;4965284;28;20054;-79
2021/05/07 12:28:12;;;;;;;4.88;2.42;;;;;;;;;;4960842;28;20026;-80
2021/05/07 12:30:57;;;;;;;5.07;2.67;;;;;;;;;;4961405;28;20446;-81
2021/05/07 12:33:42;;;;;;;4.75;2.35;;;;;;;;;;4965654;28;20094;-81
2021/05/07 12:36:28;;;;;;;4.13;2.42;;;;;;;;;;4956293;28;20025;-81
2021/05/07 12:39:14;;;;;;;5.50;2.40;;;;;;;;;;4953569;28;20106;-81
2021/05/07 12:42:00;;;;;;;4.15;2.20;;;;;;;;;;4963562;28;20034;-81
2021/05/07 12:44:45;;;;;;;3.92;2.30;;;;;;;;;;4962488;28;20042;-82
2021/05/07 12:47:30;;;;;;;3.60;2.28;;;;;;;;;;4955419;28;20034;-80
2021/05/07 12:50:15;;;;;;;4.00;3.03;;;;;;;;;;4957243;28;20557;-81
2021/05/07 12:53:01;;;;;;;5.80;2.65;;;;;;;;;;4960637;28;20090;-81
2021/05/07 12:55:46;;;;;;;4.00;2.40;;;;;;;;;;4960567;28;20130;-81
2021/05/07 12:58:31;;;;;;;3.90;2.35;;;;;;;;;;4961459;28;20516;-81
2021/05/07 13:01:17;;;;;;;6.65;3.33;;;;;;;;;;4958663;28;20085;-81
2021/05/07 13:04:05;;;;;;;5.03;2.88;;;;;;;;;;4958636;28;20033;-80
2021/05/07 13:06:51;;;;;;;3.75;2.95;;;;;;;;;;4960257;28;20030;-80
2021/05/07 13:09:36;;;;;;;4.03;2.53;;;;;;;;;;4958177;28;20035;-80
2021/05/07 13:12:21;;;;;;;4.03;2.58;;;;;;;;;;4951326;28;20675;-81
2021/05/07 13:15:06;;;;;;;4.30;2.70;;;;;;;;;;4963610;28;20039;-79
2021/05/07 13:17:52;;;;;;;4.47;2.13;;;;;;;;;;4960724;28;20019;-79
2021/05/07 13:20:38;;;;;;;5.38;2.72;;;;;;;;;;4957925;28;20038;-80
2021/05/07 13:23:23;;;;;;;8.13;4.78;;;;;;;;;;4958662;28;20027;-80
2021/05/07 13:26:08;;;;;;;4.10;2.53;;;;;;;;;;4962393;28;20050;-80
2021/05/07 13:28:59;;;;;;;5.30;2.95;;;;;;;;;;4961127;28;20106;-80
2021/05/07 13:31:44;;;;;;;5.22;2.70;;;;;;;;;;4954599;28;20023;-81
2021/05/07 13:34:30;;;;;;;4.88;2.53;;;;;;;;;;4963391;28;20034;-81
2021/05/07 13:37:16;;;;;;;7.72;3.45;;;;;;;;;;4956252;28;20030;-82
2021/05/07 13:40:02;;;;;;;5.78;3.20;;;;;;;;;;4960471;28;20102;-81
2021/05/07 13:42:57;;;;;;;5.18;3.20;;;;;;;;;;4957449;28;20477;-81
2021/05/07 13:45:42;;;;;;;5.30;2.85;;;;;;;;;;4978647;28;20573;-81
2021/05/07 13:48:28;;;;;;;11.13;6.78;;;;;;;;;;4945086;28;20038;-81
2021/05/07 13:51:13;;;;;;;6.47;3.50;;;;;;;;;;4956924;28;20382;-81
2021/05/07 13:53:58;;;;;;;4.90;3.00;;;;;;;;;;4957298;28;20394;-79
2021/05/07 13:56:43;;;;;;;5.53;3.10;;;;;;;;;;4961178;28;20429;-80
2021/05/07 13:59:28;;;;;;;5.18;2.80;;;;;;;;;;4957609;28;20046;-80
2021/05/07 14:02:14;;;;;;;6.85;3.85;;;;;;;;;;4957623;28;20030;-80
2021/05/07 14:05:00;;;;;;;7.60;3.40;;;;;;;;;;4961076;28;20113;-79
2021/05/07 14:07:45;;;;;;;7.78;3.30;;;;;;;;;;4950934;28;20041;-80
2021/05/07 14:10:30;;;;;;;4.60;2.75;;;;;;;;;;4957859;28;20248;-80
2021/05/07 14:13:15;;;;;;;7.68;2.38;;;;;;;;;;4958310;28;20029;-80
2021/05/07 14:16:00;;;;;;;4.13;2.33;;;;;;;;;;4960101;28;20042;-80
2021/05/07 14:18:46;;;;;;;4.18;2.63;;;;;;;;;;4956699;28;20125;-82
2021/05/07 14:21:32;;;;;;;3.35;2.03;;;;;;;;;;4964060;28;20029;-80
2021/05/07 14:24:17;;;;;;;4.18;2.33;;;;;;;;;;4946485;28;20023;-81
2021/05/07 14:27:03;;;;;;;4.28;1.77;;;;;;;;;;4961197;28;20331;-81
2021/05/07 14:29:48;;;;;;;4.97;2.10;;;;;;;;;;4959965;28;20056;-81
2021/05/07 14:32:33;;;;;;;3.38;1.60;;;;;;;;;;4962805;28;20031;-81
2021/05/07 14:35:18;;;;;;;7.25;2.20;;;;;;;;;;4961989;28;20037;-81
2021/05/07 14:38:03;;;;;;;4.63;2.08;;;;;;;;;;4950082;28;20104;-81
2021/05/07 14:40:49;;;;;;;4.40;1.83;;;;;;;;;;4955435;28;20073;-81
2021/05/07 14:43:34;;;;;;;3.47;1.77;;;;;;;;;;4960205;28;20022;-80
2021/05/07 14:46:20;;;;;;;4.90;1.85;;;;;;;;;;4957108;28;20101;-81
2021/05/07 14:49:05;;;;;;;8.32;2.35;;;;;;;;;;4958137;28;20032;-80
2021/05/07 14:51:50;;;;;;;4.43;2.17;;;;;;;;;;4967618;28;20037;-80
2021/05/07 14:54:36;;;;;;;2.83;1.70;;;;;;;;;;4951989;28;20124;-80
2021/05/07 14:57:21;;;;;;;2.67;1.52;;;;;;;;;;4964547;28;20486;-80
2021/05/07 15:00:07;;;;;;;4.70;1.80;;;;;;;;;;4959456;28;20113;-81
2021/05/07 15:02:52;;;;;;;3.05;1.38;;;;;;;;;;4956916;28;20065;-81
2021/05/07 15:05:39;;;;;;;4.07;1.60;;;;;;;;;;4955258;28;20026;-80
2021/05/07 15:08:24;;;;;;;3.85;1.60;;;;;;;;;;4962513;28;20034;-81
2021/05/07 15:11:10;;;;;;;5.65;1.77;;;;;;;;;;4958515;28;20037;-80
2021/05/07 15:13:55;;;;;;;2.88;1.80;;;;;;;;;;4962116;28;20508;-80
2021/05/07 15:16:40;;;;;;;4.22;1.65;;;;;;;;;;4941221;28;20394;-81
2021/05/07 15:19:25;;;;;;;4.35;2.08;;;;;;;;;;4958966;28;20036;-81
2021/05/07 15:22:11;;;;;;;3.97;1.95;;;;;;;;;;4960193;28;20033;-80
2021/05/07 15:24:56;;;;;;;4.25;1.95;;;;;;;;;;4964933;28;20035;-80
2021/05/07 15:27:42;;;;;;;3.97;2.05;;;;;;;;;;4955680;28;20027;-80
2021/05/07 15:30:27;;;;;;;6.13;1.83;;;;;;;;;;4961923;28;20420;-81
2021/05/07 15:33:12;;;;;;;3.67;2.10;;;;;;;;;;4961581;28;20070;-81
2021/05/07 15:35:57;;;;;;;4.95;1.95;;;;;;;;;;4962540;28;20019;-80
2021/05/07 15:38:42;;;;;;;6.15;2.28;;;;;;;;;;4962852;28;20164;-83
2021/05/07 15:41:28;;;;;;;3.78;1.60;;;;;;;;;;4957728;28;20049;-81
2021/05/07 15:44:13;;;;;;;3.35;1.80;;;;;;;;;;4960239;28;20019;-81
2021/05/07 15:47:00;;;;;;;3.70;2.10;;;;;;;;;;4960678;28;20034;-81
2021/05/07 15:49:45;;;;;;;2.78;1.85;;;;;;;;;;4960601;28;20049;-81
2021/05/07 15:52:30;;;;;;;4.22;2.22;;;;;;;;;;4956917;28;20034;-81
2021/05/07 15:55:16;;;;;;;4.28;2.20;;;;;;;;;;4965826;28;20088;-81
2021/05/07 15:58:01;;;;;;;5.05;2.30;;;;;;;;;;4960976;28;20018;-81
2021/05/07 16:00:46;;;;;;;4.60;2.67;;;;;;;;;;4962645;28;20178;-82
2021/05/07 16:03:31;;;;;;;6.38;1.45;;;;;;;;;;4965250;28;20789;-81
2021/05/07 16:06:17;;;;;;;2.13;1.70;;;;;;;;;;4957702;28;20019;-80
2021/05/07 16:09:05;;;;;;;4.22;2.10;;;;;;;;;;4961461;28;20556;-80
2021/05/07 16:11:52;;;;;;;5.13;2.15;;;;;;;;;;4957160;28;20110;-80
2021/05/07 16:14:37;;;;;;;8.52;5.68;;;;;;;;;;4961776;28;20076;-80
2021/05/07 16:17:23;;;;;;;4.55;2.35;;;;;;;;;;4967963;28;20114;-80
2021/05/07 16:20:08;;;;;;;7.78;2.17;;;;;;;;;;4959342;28;20049;-80
2021/05/07 16:22:54;;;;;;;4.38;1.92;;;;;;;;;;4959124;28;20658;-80
2021/05/07 16:25:39;;;;;;;13.77;10.02;;;;;;;;;;4960356;28;20081;-80
2021/05/07 16:28:24;;;;;;;8.32;5.18;;;;;;;;;;4956315;28;20041;-81
2021/05/07 16:31:09;;;;;;;3.95;1.73;;;;;;;;;;4960160;28;20106;-80
2021/05/07 16:33:55;;;;;;;3.90;2.10;;;;;;;;;;4949541;28;20545;-81
2021/05/07 16:36:41;;;;;;;3.42;1.73;;;;;;;;;;4957500;28;20505;-81
2021/05/07 16:39:26;;;;;;;5.53;2.10;;;;;;;;;;4957340;28;20118;-81
2021/05/07 16:42:12;;;;;;;3.88;1.83;;;;;;;;;;4954517;28;20031;-81